M I D A S
Marine Information and Data Acquisition System
Tripno 641 of the Zeeleeuw from 2004-02-03 07:40:56 to 2004-02-03 15:59:30
Back to CruiseResearch ActivitiesStationsMapUnderway DataData graphs

EquipmentUnitsComment
TimeDGPSUTC
LatitudeDGPSDM.mWGS84
LongitudeDGPSDM.mWGS84
TemperatureSBE03/SBE38deg celciusITS90
ConductivitySBE21S/mITS90
SalinitySBE21 Practical Salinity Units
ChlorophylAChelsea fluorimeterg/lCalibrated in Aceton
Missing or incorrect values are displayed as -999
Sea surface data collected by the RV Zeeleeuw from 2004-02-03 07:40:56 to 2004-02-03 15:59:30
Time Latitude Longitude Temperature Conductivity Salinity ChlorophylA
2004-02-03 07:41:59 51°13.592 2°56.107 14.515905 0.004872 0.029838 -0.612702
2004-02-03 07:43:00 51°13.601 2°56.07 14.395917 0.004872 0.029838 -0.612702
2004-02-03 07:44:00 51°13.626 2°55.986 14.497806 0.004872 0.029837 -0.612702
2004-02-03 07:45:00 51°13.655 2°55.882 14.566187 0.004872 0.029837 -0.612702
2004-02-03 07:45:59 51°13.673 2°55.779 14.592583 0.004872 0.029837 -0.612702
2004-02-03 07:46:59 51°13.707 2°55.784 14.867926 0.004872 0.029836 -0.612702
2004-02-03 07:47:59 51°13.774 2°55.694 14.641322 0.004872 0.029836 -0.612702
2004-02-03 07:48:59 51°13.874 2°55.596 14.60173 0.004872 0.029836 -0.646411
2004-02-03 07:49:59 51°13.995 2°55.507 14.63253 0.004872 0.029836 -0.646411
2004-02-03 07:50:59 51°14.121 2°55.418 14.686791 0.004872 0.029836 -0.646411
2004-02-03 07:51:59 51°14.214 2°55.324 14.666421 0.004872 0.029835 -0.646411
2004-02-03 07:52:59 51°14.272 2°55.235 14.63253 0.004872 0.029835 -0.646411
2004-02-03 07:53:59 51°14.316 2°55.151 14.636336 0.004872 0.029834 -0.646411
2004-02-03 07:54:59 51°14.407 2°55.018 14.344936 0.004872 0.029833 -0.646411
2004-02-03 07:55:59 51°14.569 2°54.891 7.603814 3.064076 28.522038 4.308871
2004-02-03 07:56:59 51°14.705 2°54.773 7.46724 3.34135 32.100251 2.016631
2004-02-03 07:57:59 51°14.827 2°54.669 7.46885 3.279737 31.544205 1.881794
2004-02-03 07:58:59 51°15.002 2°54.503 7.494013 3.223079 30.935181 1.746956
2004-02-03 07:59:59 51°15.197 2°54.326 7.489186 3.31997 32.001208 1.679537
2004-02-03 08:01:00 51°15.403 2°54.143 7.471435 3.364314 32.483429 1.342443
2004-02-03 08:01:59 51°15.603 2°53.965 7.436602 3.40508 32.961936 1.173896
2004-02-03 08:03:00 51°15.807 2°53.775 7.373033 3.447428 33.457924 1.140187
2004-02-03 08:03:58 51°16.002 2°53.597 7.34621 3.469762 33.740528 1.140187
2004-02-03 08:04:59 51°16.204 2°53.411 7.218339 3.485987 34.010077 1.207606
2004-02-03 08:05:59 51°16.403 2°53.232 7.203501 3.484408 34.066007 1.140187
2004-02-03 08:06:59 51°16.599 2°53.052 7.210749 3.48188 34.041863 1.207606
2004-02-03 08:07:59 51°16.799 2°52.887 7.243405 3.48209 34.024205 1.477281
2004-02-03 08:08:58 51°17.007 2°52.77 7.25892 3.487674 34.060726 1.308734
2004-02-03 08:09:58 51°17.224 2°52.657 7.262345 3.49273 34.110623 1.308734
2004-02-03 08:10:59 51°17.449 2°52.57 7.246342 3.494205 34.132461 1.578409
2004-02-03 08:11:58 51°17.673 2°52.542 7.235573 3.496418 34.172322 1.578409
2004-02-03 08:12:59 51°17.905 2°52.515 7.227936 3.497682 34.193568 1.578409
2004-02-03 08:13:59 51°18.135 2°52.529 7.225439 3.497261 34.192328 1.376153
2004-02-03 08:14:59 51°18.335 2°52.701 7.216772 3.492415 34.149677 1.612118
2004-02-03 08:15:59 51°18.481 2°52.992 7.214961 3.495892 34.19498 1.612118
2004-02-03 08:16:59 51°18.599 2°53.32 7.210504 3.496945 34.20727 1.612118
2004-02-03 08:17:59 51°18.692 2°53.67 7.215009 3.497999 34.218725 1.5447
2004-02-03 08:18:59 51°18.788 2°54.014 7.2343 3.49842 34.218291 1.376153
2004-02-03 08:19:59 51°18.882 2°54.359 7.24365 3.498736 34.212534 1.578409
2004-02-03 08:20:58 51°18.977 2°54.7 7.256571 3.498525 34.200221 1.477281
2004-02-03 08:21:59 51°19.081 2°55.056 7.265868 3.498525 34.186868 1.409862
2004-02-03 08:22:59 51°19.183 2°55.403 7.272816 3.49863 34.183007 1.5447
2004-02-03 08:23:59 51°19.279 2°55.758 7.281084 3.498736 34.174979 1.578409
2004-02-03 08:25:00 51°19.371 2°56.118 7.287589 3.498736 34.174145 1.578409
2004-02-03 08:26:00 51°19.469 2°56.478 7.290133 3.498841 34.168622 1.612118
2004-02-03 08:26:59 51°19.562 2°56.83 7.2916 3.498841 34.163623 1.679537
2004-02-03 08:27:59 51°19.657 2°57.188 7.297616 3.498946 34.163101 1.713247
2004-02-03 08:28:59 51°19.749 2°57.55 7.299817 2.455625 23.112732 1.679537
2004-02-03 08:29:59 51°19.843 2°57.911 7.296784 3.498525 34.154364 1.780665
2004-02-03 08:30:59 51°19.937 2°58.274 7.29116 3.498946 34.163101 1.814375
2004-02-03 08:31:59 51°20.025 2°58.644 7.279518 3.499157 34.175386 1.915503
2004-02-03 08:32:59 51°20.107 2°59.019 7.255445 3.498525 34.182697 2.016631
2004-02-03 08:33:59 51°20.203 2°59.38 7.243356 3.499789 34.213123 2.185178
2004-02-03 08:34:59 51°20.286 2°59.737 7.236112 3.500738 34.231783 2.286306
2004-02-03 08:35:59 51°20.379 3°0.1 7.23851 3.502424 34.259309 2.387435
2004-02-03 08:36:59 51°20.464 3°0.467 7.242867 3.504109 34.272614 2.387435
2004-02-03 08:37:59 51°20.55 3°0.833 7.242916 3.504215 34.271249 2.353725
2004-02-03 08:38:59 51°20.635 3°1.204 7.247027 3.505268 34.281865 2.353725
2004-02-03 08:39:59 51°20.721 3°1.578 7.256571 3.506427 34.291115 2.353725
2004-02-03 08:40:59 51°20.813 3°1.948 7.258479 3.507375 34.297236 2.286306
2004-02-03 08:41:59 51°20.911 3°2.316 7.270418 3.508534 34.299785 2.387435
2004-02-03 08:42:59 51°21.009 3°2.678 7.274871 3.508744 34.291194 2.218888
2004-02-03 08:43:59 51°21.11 3°3.041 7.329983 3.505794 34.221577 1.814375
2004-02-03 08:44:59 51°21.198 3°3.418 7.328468 3.501053 34.150168 2.016631
2004-02-03 08:45:58 51°21.289 3°3.784 7.332525 3.497366 34.118502 2.050341
2004-02-03 08:46:58 51°21.383 3°4.16 7.324508 3.493783 34.078007 2.050341
2004-02-03 08:47:59 51°21.476 3°4.542 7.301137 3.489675 34.047568 2.218888
2004-02-03 08:49:00 51°21.562 3°4.929 7.263911 3.485461 34.026755 2.218888
2004-02-03 08:49:59 51°21.642 3°5.306 7.231412 3.477139 33.977082 2.421144
2004-02-03 08:50:59 51°21.721 3°5.686 7.235231 3.472187 33.938243 2.6234
2004-02-03 08:51:59 51°21.797 3°6.071 7.245853 3.469343 33.89245 2.522272
2004-02-03 08:52:59 51°21.871 3°6.457 7.242377 3.473346 33.935906 2.488563
2004-02-03 08:53:58 51°21.945 3°6.837 7.249328 3.478614 33.993097 2.488563
2004-02-03 08:54:59 51°22.013 3°7.24 7.248496 3.480194 34.003615 2.522272
2004-02-03 08:55:59 51°22.05 3°7.647 7.231999 3.477876 33.98592 2.522272
2004-02-03 08:56:59 51°22.104 3°8.049 7.224949 3.475559 33.976518 2.690819
2004-02-03 08:57:59 51°22.164 3°8.446 7.229062 3.473452 33.961099 2.859366
2004-02-03 08:58:59 51°22.224 3°8.849 7.221816 3.472819 33.947596 2.65711
2004-02-03 08:59:59 51°22.281 3°9.253 7.181212 3.470291 33.942526 2.791947
2004-02-03 09:00:59 51°22.331 3°9.66 7.166022 3.465656 33.919525 2.926785
2004-02-03 09:01:59 51°22.383 3°10.07 7.062485 3.461337 33.923202 3.027913
2004-02-03 09:02:59 51°22.433 3°10.479 6.993187 3.451541 33.920487 3.533554
2004-02-03 09:03:59 51°22.468 3°10.892 6.953027 3.447749 33.925811 3.533554
2004-02-03 09:04:59 51°22.495 3°11.316 6.800514 3.443325 33.924244 3.365007
2004-02-03 09:05:59 51°22.524 3°11.733 6.774731 3.43216 33.91586 3.668392
2004-02-03 09:06:59 51°22.551 3°12.16 6.948897 3.435109 33.902077 3.735811
2004-02-03 09:07:59 51°22.567 3°12.588 7.019078 3.435423 33.743758 2.926785
2004-02-03 09:08:59 51°22.573 3°12.995 6.966744 3.427733 33.679759 3.095332
2004-02-03 09:10:00 51°22.565 3°13.236 6.908119 3.426892 33.745299 3.331298
2004-02-03 09:10:59 51°22.573 3°13.322 6.93429 3.423415 33.702298 3.23017
2004-02-03 09:11:59 51°22.583 3°13.379 6.915154 3.422678 33.692575 3.095332
2004-02-03 09:12:59 51°22.59 3°13.481 6.914416 3.422573 33.704722 3.23017
2004-02-03 09:13:59 51°22.595 3°13.598 6.922928 3.422257 33.70376 3.263879
2004-02-03 09:14:59 51°22.597 3°13.708 6.936061 3.421098 33.673642 3.162751
2004-02-03 09:15:59 51°22.597 3°13.81 6.938372 3.42036 33.657283 2.926785
2004-02-03 09:17:00 51°22.599 3°13.911 6.948897 3.428786 33.643245 3.365007
2004-02-03 09:17:59 51°22.602 3°14.022 6.95342 3.430893 33.64967 3.162751
2004-02-03 09:18:59 51°22.604 3°14.141 6.948208 3.430261 33.645264 3.297589
2004-02-03 09:19:59 51°22.608 3°14.256 6.94393 3.430577 33.647054 3.499845
2004-02-03 09:20:59 51°22.616 3°14.372 6.937094 3.430366 33.650543 3.432426
2004-02-03 09:21:59 51°22.626 3°14.493 6.922632 3.431315 33.667487 3.23017
2004-02-03 09:22:59 51°22.639 3°14.615 6.900688 3.431209 33.683715 3.331298
2004-02-03 09:23:59 51°22.653 3°14.736 6.898523 3.430578 33.694216 3.668392
2004-02-03 09:24:59 51°22.667 3°14.856 6.896948 3.424994 33.632497 3.702101
2004-02-03 09:25:59 51°22.682 3°14.975 6.895373 3.416462 33.540295 4.072905
2004-02-03 09:26:59 51°22.695 3°15.094 6.895422 3.413091 33.506025 4.140324
2004-02-03 09:27:59 51°22.708 3°15.213 6.902164 3.406243 33.42483 4.174033
2004-02-03 09:28:59 51°22.722 3°15.332 6.896603 3.402873 33.38729 4.34258
2004-02-03 09:29:59 51°22.742 3°15.449 6.890451 3.402873 33.396321 4.645965
2004-02-03 09:30:59 51°22.763 3°15.567 6.890944 3.401187 33.377138 4.578546
2004-02-03 09:31:59 51°22.785 3°15.686 6.897637 3.397922 33.340747 4.612255
2004-02-03 09:32:59 51°22.809 3°15.807 6.88105 3.397079 33.337307 4.814512
2004-02-03 09:33:59 51°22.838 3°15.929 6.858747 3.401819 33.398808 5.016768
2004-02-03 09:34:59 51°22.868 3°16.047 6.846484 3.407508 33.480585 5.320153
2004-02-03 09:35:59 51°22.9 3°16.163 6.847863 3.404559 33.451707 5.320153
2004-02-03 09:36:59 51°22.929 3°16.282 6.862883 3.399081 33.390319 5.252734
2004-02-03 09:38:00 51°22.958 3°16.405 6.861947 3.396131 33.349126 4.747093
2004-02-03 09:38:59 51°22.983 3°16.523 6.850867 3.39413 33.334695 5.050477
2004-02-03 09:39:59 51°23.01 3°16.638 6.845991 3.394235 33.34159 5.4887
2004-02-03 09:40:59 51°23.037 3°16.752 6.844415 3.395499 33.356194 5.623537
2004-02-03 09:42:00 51°23.058 3°16.867 6.855989 3.395289 33.354718 5.859503
2004-02-03 09:42:59 51°23.073 3°16.973 6.856284 3.389495 33.280895 5.589828
2004-02-03 09:43:59 51°23.083 3°17.075 6.85397 3.390338 33.294177 5.151606
2004-02-03 09:45:18 51°23.091 3°17.218 7.053207 3.395394 33.346834 -0.612702
2004-02-03 09:46:34 51°23.096 3°17.356 7.425425 0.044773 0.32943 -0.680121
2004-02-03 09:47:34 51°23.095 3°17.468 7.499376 0.039473 0.288239 -0.646411
2004-02-03 09:48:34 51°23.075 3°17.565 7.612332 0.037394 0.271603 -0.680121
2004-02-03 09:49:35 51°23.052 3°17.612 7.731986 0.036043 0.260604 -0.646411
2004-02-03 09:50:34 51°23.05 3°17.617 7.839636 0.035628 0.256535 -0.646411
2004-02-03 09:51:34 51°23.061 3°17.596 7.958965 0.035939 0.257945 -0.680121
2004-02-03 09:52:34 51°23.074 3°17.573 8.066331 0.035835 0.256233 -0.680121
2004-02-03 09:53:34 51°23.092 3°17.547 8.156438 0.035731 0.25454 -0.646411
2004-02-03 09:54:34 51°23.117 3°17.519 8.25437 0.035627 0.252895 -0.612702
2004-02-03 09:55:34 51°23.151 3°17.496 8.355569 0.035212 0.248976 -0.646411
2004-02-03 09:56:34 51°23.185 3°17.475 8.474474 0.034796 0.245032 -0.680121
2004-02-03 09:57:34 51°23.218 3°17.453 8.552023 0.034484 0.242041 -0.612702
2004-02-03 09:58:34 51°23.248 3°17.427 8.646196 0.034276 0.239692 -0.680121
2004-02-03 09:59:34 51°23.284 3°17.4 8.734827 0.034069 0.237445 -0.612702
2004-02-03 10:00:35 51°23.323 3°17.379 8.834082 0.033653 0.233706 -0.680121
2004-02-03 10:01:35 51°23.365 3°17.363 8.920024 0.033237 0.229984 -0.612702
2004-02-03 10:02:35 51°23.404 3°17.341 9.007614 0.03251 0.224121 -0.680121
2004-02-03 10:03:35 51°23.445 3°17.319 9.101316 0.031886 0.219059 -0.646411
2004-02-03 10:04:35 51°23.491 3°17.297 9.174936 0.031471 0.215451 -0.680121
2004-02-03 10:05:34 51°23.545 3°17.325 9.253122 0.031263 0.213335 -0.680121
2004-02-03 10:06:34 51°23.575 3°17.429 9.328512 0.031263 0.212693 -0.646411
2004-02-03 10:07:35 51°23.562 3°17.536 9.411672 0.031159 0.211325 -0.646411
2004-02-03 10:08:34 51°23.529 3°17.597 9.487588 0.030951 0.20929 -0.646411
2004-02-03 10:09:34 51°23.495 3°17.595 9.566295 0.030847 0.208009 -0.646411
2004-02-03 10:10:34 51°23.475 3°17.561 9.641041 0.030951 0.208171 -0.646411
2004-02-03 10:11:34 51°23.458 3°17.517 9.719516 0.031159 0.209071 -0.71383
2004-02-03 10:12:34 51°23.447 3°17.465 9.788439 0.031367 0.20998 -0.71383
2004-02-03 10:13:34 51°23.452 3°17.419 9.863212 0.03147 0.210158 -0.646411
2004-02-03 10:14:34 51°23.463 3°17.39 9.917193 0.03147 0.209613 -0.646411
2004-02-03 10:15:35 51°23.477 3°17.367 9.992381 0.031574 0.209779 -0.680121
2004-02-03 10:16:35 51°23.492 3°17.347 10.052019 0.031574 0.209264 -0.680121
2004-02-03 10:17:34 51°23.508 3°17.328 10.119235 0.031574 0.208769 -0.646411
2004-02-03 10:18:35 51°23.523 3°17.327 10.186147 0.031574 0.208269 -0.612702
2004-02-03 10:19:34 51°23.537 3°17.34 10.243833 0.031678 0.208476 -0.680121
2004-02-03 10:20:34 51°23.552 3°17.364 10.299134 0.031574 0.20728 -0.646411
2004-02-03 10:21:34 51°23.567 3°17.379 10.353036 0.031678 0.207502 -0.680121
2004-02-03 10:22:34 51°23.543 3°17.208 10.406287 0.031574 0.206319 -0.646411
2004-02-03 10:23:35 51°23.494 3°16.909 10.471416 0.031574 0.205869 -0.680121
2004-02-03 10:24:35 51°23.432 3°16.607 10.526572 0.031574 0.20543 -0.680121
2004-02-03 10:25:34 51°23.374 3°16.306 10.584238 0.031574 0.204998 -0.646411
2004-02-03 10:26:34 51°23.317 3°16.001 10.633028 0.03147 0.203898 -0.680121
2004-02-03 10:27:34 51°23.262 3°15.692 10.691854 0.03147 0.203495 -0.680121
2004-02-03 10:28:34 51°23.207 3°15.384 10.747937 0.03147 0.203074 -0.646411
2004-02-03 10:29:35 51°23.149 3°15.073 10.801239 0.031366 0.201986 -0.680121
2004-02-03 10:30:34 51°23.094 3°14.773 10.857646 0.031366 0.201611 -0.646411
2004-02-03 10:31:34 51°23.032 3°14.472 10.914559 0.031366 0.201241 -0.680121
2004-02-03 10:32:35 51°22.96 3°14.174 10.970406 0.031262 0.200172 -0.646411
2004-02-03 10:33:34 51°22.89 3°13.887 11.022235 0.031262 0.199799 -0.646411
2004-02-03 10:34:34 51°22.806 3°13.602 11.067102 0.031262 0.199416 -0.646411
2004-02-03 10:35:34 51°22.753 3°13.307 11.121068 0.031262 0.199046 -0.646411
2004-02-03 10:36:34 51°22.728 3°13 11.170659 0.031158 0.198026 -0.646411
2004-02-03 10:37:35 51°22.703 3°12.688 11.229052 0.031158 0.197669 -0.646411
2004-02-03 10:38:34 51°22.678 3°12.387 11.272766 0.031055 0.196647 -0.680121
2004-02-03 10:39:34 51°22.654 3°12.079 11.327897 0.031055 0.196306 -0.646411
2004-02-03 10:40:35 51°22.63 3°11.763 11.369708 0.030951 0.195284 -0.646411
2004-02-03 10:41:35 51°22.606 3°11.45 11.426869 0.030951 0.19495 -0.646411
2004-02-03 10:42:34 51°22.583 3°11.141 11.469443 0.030847 0.193946 -0.646411
2004-02-03 10:43:34 51°22.56 3°10.827 11.516986 0.030847 0.193635 -0.646411
2004-02-03 10:44:35 51°22.526 3°10.506 11.571272 0.030743 0.192652 -0.646411
2004-02-03 10:45:35 51°22.481 3°10.191 11.616773 0.030743 0.192348 -0.646411
2004-02-03 10:46:34 51°22.422 3°9.891 11.67468 0.030639 0.191397 -0.646411
2004-02-03 10:47:35 51°22.368 3°9.58 11.722532 0.030639 0.191089 -0.612702
2004-02-03 10:48:35 51°22.318 3°9.27 11.768797 0.030535 0.19014 -0.646411
2004-02-03 10:49:34 51°22.275 3°8.963 11.808825 0.030535 0.189856 -0.646411
2004-02-03 10:50:34 51°22.283 3°8.64 11.864103 0.030431 0.188913 -0.646411
2004-02-03 10:51:34 51°22.299 3°8.315 11.907945 0.030431 0.18864 -0.646411
2004-02-03 10:52:34 51°22.31 3°7.991 11.9488 0.030327 0.187708 -0.646411
2004-02-03 10:53:35 51°22.316 3°7.663 12.01133 0.030223 0.18678 -0.680121
2004-02-03 10:54:35 51°22.313 3°7.341 12.055848 0.030223 0.186508 -0.646411
2004-02-03 10:55:35 51°22.299 3°7.023 12.093795 0.030119 0.185582 -0.680121
2004-02-03 10:56:34 51°22.269 3°6.713 12.161499 0.030119 0.18532 -0.680121
2004-02-03 10:57:34 51°22.212 3°6.408 12.185367 0.030015 0.184402 -0.646411
2004-02-03 10:58:35 51°22.153 3°6.099 12.2353 0.030015 0.18416 -0.646411
2004-02-03 10:59:35 51°22.095 3°5.793 12.283655 0.029911 0.183264 -0.680121
2004-02-03 11:00:34 51°22.042 3°5.491 12.322558 0.029807 0.182367 -0.646411
2004-02-03 11:01:34 51°21.985 3°5.183 12.370849 0.029704 0.18145 -0.680121
2004-02-03 11:02:34 51°21.894 3°4.899 12.420733 0.029704 0.181221 -0.680121
2004-02-03 11:03:34 51°21.8 3°4.624 12.470218 0.0296 0.180368 -0.646411
2004-02-03 11:04:35 51°21.703 3°4.338 12.506483 0.029496 0.1795 -0.646411
2004-02-03 11:05:34 51°21.61 3°4.059 12.555182 0.029496 0.179268 -0.646411
2004-02-03 11:06:35 51°21.514 3°3.772 12.591672 0.029288 0.177758 -0.646411
2004-02-03 11:07:34 51°21.436 3°3.488 12.635307 0.029288 0.177545 -0.646411
2004-02-03 11:08:34 51°21.368 3°3.186 12.676437 0.029184 0.176703 -0.680121
2004-02-03 11:09:34 51°21.305 3°2.882 12.729827 0.02908 0.175876 -0.646411
2004-02-03 11:10:34 51°21.254 3°2.574 12.772113 0.028872 0.174413 -0.646411
2004-02-03 11:11:35 51°21.218 3°2.253 12.810417 0.028768 0.173598 -0.646411
2004-02-03 11:12:35 51°21.183 3°1.937 12.84205 0.02856 0.172142 -0.646411
2004-02-03 11:13:34 51°21.147 3°1.627 12.886465 0.028457 0.171343 -0.646411
2004-02-03 11:14:35 51°21.109 3°1.308 12.928965 0.028353 0.170528 -0.646411
2004-02-03 11:15:34 51°21.072 3°0.998 12.966192 0.028249 0.169755 -0.680121
2004-02-03 11:16:34 51°21.033 3°0.679 13.003399 0.028145 0.168964 -0.612702
2004-02-03 11:17:35 51°20.995 3°0.355 13.050617 0.028041 0.168179 -0.646411
2004-02-03 11:18:35 51°20.951 3°0.139 13.090462 0.027833 0.166767 -0.646411
2004-02-03 11:19:35 51°20.942 2°59.973 13.123618 0.027729 0.166012 -0.646411
2004-02-03 11:21:04 51°20.932 2°59.893 13.175534 0.027521 0.164513 -0.612702
2004-02-03 11:22:04 51°20.938 2°59.879 13.212401 0.027417 0.163733 -0.646411
2004-02-03 11:23:04 51°20.946 2°59.851 13.240764 0.02721 0.162314 -0.646411
2004-02-03 11:24:03 51°20.967 2°59.793 13.274426 0.027106 0.161527 -0.680121
2004-02-03 11:25:04 51°21.019 2°59.749 13.30352 0.026898 0.160105 -0.646411
2004-02-03 11:26:04 51°21.083 2°59.753 13.337597 0.026794 0.159307 -0.646411
2004-02-03 11:27:04 51°21.135 2°59.814 13.366173 0.02669 0.158516 -0.680121
2004-02-03 11:28:03 51°21.168 2°59.902 13.397233 0.026586 0.157738 -0.646411
2004-02-03 11:29:04 51°21.188 2°59.997 13.429792 0.026378 0.156347 -0.680121
2004-02-03 11:30:04 51°21.202 3°0.089 13.464784 0.026274 0.155587 -0.680121
2004-02-03 11:31:04 51°21.214 3°0.182 13.490281 0.02617 0.154864 -0.646411
2004-02-03 11:32:04 51°21.227 3°0.274 13.538757 0.026067 0.154152 -0.646411
2004-02-03 11:33:04 51°21.242 3°0.365 13.564093 0.025859 0.152803 -0.646411
2004-02-03 11:34:04 51°21.257 3°0.457 13.591196 0.025755 0.152079 -0.680121
2004-02-03 11:35:04 51°21.274 3°0.55 13.629345 0.025651 0.151376 -0.646411
2004-02-03 11:36:04 51°21.291 3°0.642 13.654247 0.025443 0.150038 -0.612702
2004-02-03 11:37:04 51°21.31 3°0.733 13.686593 0.025339 0.149318 -0.646411
2004-02-03 11:38:03 51°21.331 3°0.822 13.708813 0.025235 0.148601 -0.680121
2004-02-03 11:39:04 51°21.352 3°0.911 13.743615 0.025131 0.147881 -0.646411
2004-02-03 11:40:04 51°21.37 3°1 13.785885 0.025027 0.147177 -0.646411
2004-02-03 11:41:04 51°21.39 3°1.09 13.812899 0.024924 0.146467 -0.646411
2004-02-03 11:42:04 51°21.408 3°1.181 13.822904 0.024716 0.145148 -0.680121
2004-02-03 11:43:04 51°21.428 3°1.274 13.858488 0.024612 0.144455 -0.646411
2004-02-03 11:44:04 51°21.446 3°1.366 13.891089 0.024508 0.143751 -0.646411
2004-02-03 11:45:04 51°21.463 3°1.459 13.908777 0.024404 0.143051 -0.612702
2004-02-03 11:46:04 51°21.479 3°1.552 13.938349 0.0243 0.142349 -0.680121
2004-02-03 11:47:04 51°21.496 3°1.643 13.970514 0.024196 0.141648 -0.680121
2004-02-03 11:48:04 51°21.511 3°1.735 13.995997 0.024092 0.140949 -0.680121
2004-02-03 11:49:03 51°21.527 3°1.825 14.034578 0.023988 0.14026 -0.646411
2004-02-03 11:50:03 51°21.543 3°1.917 14.050727 0.023884 0.139558 -0.646411
2004-02-03 11:51:04 51°21.564 3°2.009 14.078341 0.023781 0.138897 -0.680121
2004-02-03 11:52:04 51°21.585 3°2.099 14.107045 0.023677 0.138218 -0.646411
2004-02-03 11:53:04 51°21.606 3°2.188 14.123926 0.023469 0.136913 -0.680121
2004-02-03 11:54:04 51°21.626 3°2.275 14.158558 0.023365 0.136237 -0.646411
2004-02-03 11:55:04 51°21.645 3°2.353 14.182781 0.023261 0.13555 -0.646411
2004-02-03 11:56:04 51°21.661 3°2.417 14.203869 0.023053 0.134257 -0.646411
2004-02-03 11:57:04 51°21.673 3°2.48 14.228736 0.022949 0.13356 -0.646411
2004-02-03 11:58:04 51°21.649 3°2.55 14.241803 0.022845 0.132841 -0.646411
2004-02-03 11:59:04 51°21.617 3°2.544 14.294796 0.022638 0.131583 -0.680121
2004-02-03 12:00:04 51°21.611 3°2.481 14.318662 0.022534 0.130927 -0.680121
2004-02-03 12:01:04 51°21.614 3°2.428 14.333338 0.022534 0.130868 -0.646411
2004-02-03 12:02:04 51°21.623 3°2.38 14.354072 0.02243 0.130189 -0.646411
2004-02-03 12:03:04 51°21.638 3°2.329 14.375371 0.022326 0.129514 -0.680121
2004-02-03 12:04:04 51°21.655 3°2.283 14.396443 0.022222 0.12883 -0.646411
2004-02-03 12:05:04 51°21.676 3°2.237 14.42782 0.022222 0.12875 -0.646411
2004-02-03 12:06:04 51°21.701 3°2.193 14.441639 0.022118 0.128054 -0.646411
2004-02-03 12:07:04 51°21.729 3°2.145 14.461989 0.022014 0.127363 -0.680121
2004-02-03 12:08:04 51°21.761 3°2.1 14.48036 0.022014 0.127267 -0.646411
2004-02-03 12:09:04 51°21.801 3°2.061 14.507272 0.02191 0.126581 -0.646411
2004-02-03 12:10:04 51°21.847 3°2.03 14.52826 0.02191 0.126488 -0.646411
2004-02-03 12:11:04 51°21.896 3°1.999 14.556204 0.021806 0.125803 -0.646411
2004-02-03 12:12:04 51°21.952 3°1.975 14.570959 0.021806 0.125709 -0.646411
2004-02-03 12:13:04 51°22.011 3°1.965 14.596741 0.021702 0.125027 -0.680121
2004-02-03 12:14:04 51°22.071 3°1.975 14.614376 0.021599 0.124343 -0.680121
2004-02-03 12:15:04 51°22.132 3°2.007 14.62505 0.021599 0.124255 -0.680121
2004-02-03 12:16:04 51°22.191 3°2.057 14.648756 0.021495 0.123573 -0.680121
2004-02-03 12:17:04 51°22.239 3°2.121 14.654835 0.021495 0.123477 -0.646411
2004-02-03 12:18:04 51°22.278 3°2.195 14.6836 0.021391 0.122794 -0.680121
2004-02-03 12:19:04 51°22.308 3°2.274 14.695138 0.021391 0.122705 -0.646411
2004-02-03 12:20:04 51°22.33 3°2.353 14.720523 0.021287 0.122049 -0.646411
2004-02-03 12:21:04 51°22.35 3°2.43 14.751401 0.021287 0.121984 -0.646411
2004-02-03 12:22:04 51°22.368 3°2.51 14.762534 0.021183 0.121324 -0.646411
2004-02-03 12:23:04 51°22.389 3°2.6 14.782788 0.021183 0.12126 -0.646411
2004-02-03 12:24:04 51°22.411 3°2.697 14.797101 0.021079 0.120605 -0.646411
2004-02-03 12:25:04 51°22.419 3°2.794 14.820878 0.020975 0.119946 -0.646411
2004-02-03 12:26:04 51°22.415 3°2.883 14.820878 0.020975 0.119876 -0.646411
2004-02-03 12:27:04 51°22.404 3°2.964 14.851055 0.020871 0.11924 -0.646411
2004-02-03 12:28:04 51°22.387 3°3.035 14.870106 0.020871 0.119183 -0.646411
2004-02-03 12:29:04 51°22.369 3°3.101 14.902876 0.020767 0.118543 -0.646411
2004-02-03 12:30:04 51°22.366 3°3.151 14.913984 0.020767 0.118507 -0.612702
2004-02-03 12:31:04 51°22.373 3°3.194 14.940637 0.020663 0.11787 -0.612702
2004-02-03 12:32:04 51°22.345 3°3.232 14.938547 0.020663 0.117792 -0.646411
2004-02-03 12:33:04 51°22.305 3°3.127 14.972154 0.020559 0.117215 -0.646411
2004-02-03 12:34:04 51°22.257 3°2.875 14.982772 0.020456 0.116579 -0.646411
2004-02-03 12:35:04 51°22.183 3°2.571 7.426694 3.621791 34.590847 2.387435
2004-02-03 12:36:04 51°22.094 3°2.275 7.316002 3.45438 33.501999 1.241315
2004-02-03 12:37:04 51°22.002 3°1.982 7.286122 3.477243 33.85425 1.241315
2004-02-03 12:38:04 51°21.909 3°1.687 7.268608 3.482932 33.945522 1.039059
2004-02-03 12:39:04 51°21.818 3°1.389 7.268412 3.471238 33.851872 1.207606
2004-02-03 12:40:04 51°21.726 3°1.091 7.270418 3.463443 33.778943 1.072768
2004-02-03 12:41:04 51°21.635 3°0.791 7.268412 3.429416 33.423585 1.140187
2004-02-03 12:42:04 51°21.542 3°0.492 7.269685 3.429943 33.431731 1.207606
2004-02-03 12:43:04 51°21.449 3°0.194 7.273256 3.285849 31.877294 1.140187
2004-02-03 12:44:04 51°21.357 2°59.894 7.276632 3.451222 33.662163 1.241315
2004-02-03 12:45:04 51°21.265 2°59.594 7.277561 3.386753 32.963128 1.173896
2004-02-03 12:46:04 51°21.173 2°59.291 7.28035 3.440688 33.552969 1.207606
2004-02-03 12:47:04 51°21.082 2°58.991 7.274577 3.428152 33.420499 1.207606
2004-02-03 12:48:04 51°20.99 2°58.692 7.277757 3.504004 34.243871 1.241315
2004-02-03 12:49:04 51°20.898 2°58.39 7.27169 3.503582 34.243471 1.342443
2004-02-03 12:50:04 51°20.805 2°58.085 7.277415 3.503477 34.238148 1.342443
2004-02-03 12:51:04 51°20.713 2°57.786 7.283089 3.503055 34.2319 1.477281
2004-02-03 12:52:04 51°20.622 2°57.486 7.279567 3.502634 34.231499 1.612118
2004-02-03 12:53:04 51°20.53 2°57.184 7.278686 3.502318 34.228901 1.645828
2004-02-03 12:54:04 51°20.438 2°56.88 7.283921 3.502529 34.23119 1.578409
2004-02-03 12:55:04 51°20.346 2°56.578 7.288861 3.502213 34.227756 1.578409
2004-02-03 12:56:04 51°20.255 2°56.275 7.291356 3.501686 34.217023 1.645828
2004-02-03 12:57:04 51°20.165 2°55.976 7.300403 3.501896 34.211799 1.645828
2004-02-03 12:58:04 51°20.075 2°55.673 7.302995 3.50158 34.204195 1.443571
2004-02-03 12:59:04 51°19.985 2°55.372 7.311992 3.498209 34.161761 1.443571
2004-02-03 13:00:04 51°19.894 2°55.069 7.311895 3.499368 34.170174 1.612118
2004-02-03 13:01:04 51°19.804 2°54.767 7.320353 3.497682 34.146051 1.308734
2004-02-03 13:02:04 51°19.714 2°54.464 7.328615 3.496207 34.128384 1.443571
2004-02-03 13:03:04 51°19.625 2°54.161 7.325144 3.494521 34.105108 1.308734
2004-02-03 13:04:04 51°19.534 2°53.853 7.334773 3.493889 34.09659 1.241315
2004-02-03 13:05:04 51°19.442 2°53.547 7.334578 3.493678 34.091812 1.173896
2004-02-03 13:06:04 51°19.351 2°53.24 7.339172 3.49431 34.094513 1.140187
2004-02-03 13:07:04 51°19.261 2°52.93 7.337315 3.4941 34.091397 1.140187
2004-02-03 13:08:04 51°19.169 2°52.622 7.333942 3.493151 34.085268 1.072768
2004-02-03 13:09:04 51°19.079 2°52.314 7.32881 3.492098 34.077996 1.072768
2004-02-03 13:10:04 51°18.988 2°52.004 7.329152 3.491677 34.073425 1.072768
2004-02-03 13:11:04 51°18.897 2°51.695 7.323726 3.491677 34.078409 1.072768
2004-02-03 13:12:04 51°18.791 2°51.402 7.320695 3.491361 34.076642 1.039059
2004-02-03 13:13:04 51°18.647 2°51.198 7.329592 3.491887 34.082356 1.140187
2004-02-03 13:14:04 51°18.529 2°51.072 7.333014 3.493889 34.098252 1.207606
2004-02-03 13:15:04 51°18.516 2°50.976 7.339319 3.497155 34.125362 1.106477
2004-02-03 13:16:04 51°18.532 2°50.977 7.340785 3.498524 34.136889 1.140187
2004-02-03 13:17:04 51°18.549 2°50.986 7.337755 3.498419 34.136578 1.106477
2004-02-03 13:18:04 51°18.594 2°50.964 7.340785 3.497576 34.132427 1.140187
2004-02-03 13:19:04 51°18.661 2°50.985 7.345135 3.499157 34.141249 1.409862
2004-02-03 13:20:04 51°18.711 2°51.042 7.337657 3.498735 34.14167 1.039059
2004-02-03 13:21:04 51°18.75 2°51.113 7.336973 3.497787 34.130554 0.97164
2004-02-03 13:22:04 51°18.781 2°51.193 7.331499 3.496417 34.120689 1.039059
2004-02-03 13:23:04 51°18.805 2°51.276 7.327392 3.495048 34.109159 1.072768
2004-02-03 13:24:04 51°18.827 2°51.36 7.332232 3.494943 34.104692 1.039059
2004-02-03 13:25:04 51°18.854 2°51.441 7.3336 3.494943 34.104692 0.93793
2004-02-03 13:26:04 51°18.884 2°51.521 7.333307 3.494521 34.102615 1.072768
2004-02-03 13:27:04 51°18.906 2°51.606 7.328321 3.493573 34.094823 1.106477
2004-02-03 13:28:04 51°18.919 2°51.692 7.323971 3.492941 34.09046 1.039059
2004-02-03 13:29:04 51°18.93 2°51.777 7.324948 3.492098 34.08381 1.072768
2004-02-03 13:30:04 51°18.94 2°51.861 7.318251 3.491466 34.081107 1.072768
2004-02-03 13:31:04 51°18.951 2°51.946 7.320353 3.491571 34.080589 1.039059
2004-02-03 13:32:04 51°18.965 2°52.031 7.316442 3.49115 34.074356 1.005349
2004-02-03 13:33:04 51°18.987 2°52.116 7.320451 3.491255 34.07716 0.97164
2004-02-03 13:34:04 51°19.012 2°52.199 7.317908 3.491361 34.079134 1.039059
2004-02-03 13:35:04 51°19.041 2°52.28 7.316686 3.49115 34.07851 1.106477
2004-02-03 13:36:04 51°19.064 2°52.365 7.316393 3.490729 34.073938 1.072768
2004-02-03 13:37:04 51°19.075 2°52.45 7.320646 3.490939 34.075393 1.039059
2004-02-03 13:38:04 51°19.084 2°52.538 7.318055 3.490518 34.071652 1.072768
2004-02-03 13:39:04 51°19.095 2°52.631 7.317273 3.490307 34.068536 1.039059
2004-02-03 13:40:04 51°19.116 2°52.727 7.318006 3.490518 34.071652 1.072768
2004-02-03 13:41:04 51°19.14 2°52.82 7.31698 3.490518 34.072483 1.106477
2004-02-03 13:42:04 51°19.163 2°52.908 7.315855 3.490518 34.069991 1.106477
2004-02-03 13:43:04 51°19.184 2°52.996 7.317468 3.490518 34.072483 1.140187
2004-02-03 13:44:04 51°19.202 2°53.087 7.318935 3.490412 34.067187 1.207606
2004-02-03 13:45:04 51°19.221 2°53.18 7.320011 3.490728 34.071446 1.140187
2004-02-03 13:46:04 51°19.241 2°53.271 7.322064 3.491045 34.073213 1.106477
2004-02-03 13:47:04 51°19.262 2°53.364 7.323824 3.490834 34.070097 1.072768
2004-02-03 13:48:04 51°19.284 2°53.456 7.324851 3.490623 34.065321 1.140187
2004-02-03 13:49:04 51°19.306 2°53.547 7.324508 3.490834 34.070097 1.106477
2004-02-03 13:50:04 51°19.318 2°53.635 7.324019 3.490939 34.067918 1.072768
2004-02-03 13:51:04 51°19.324 2°53.7 7.32094 3.490307 34.065214 1.140187
2004-02-03 13:52:04 51°19.327 2°53.751 7.326855 3.490728 34.064803 1.106477
2004-02-03 13:53:04 51°19.33 2°53.792 7.326366 3.490834 34.063455 1.072768
2004-02-03 13:54:04 51°19.329 2°53.831 7.330863 3.491255 34.065534 1.241315
2004-02-03 13:55:04 51°19.294 2°53.863 7.324166 3.491044 34.064909 1.106477
2004-02-03 13:56:04 51°19.25 2°53.839 7.324704 3.489886 34.060643 1.140187
2004-02-03 13:57:04 51°19.214 2°53.794 7.321184 3.489675 34.060018 1.275024
2004-02-03 13:58:04 51°19.18 2°53.755 7.323188 3.489991 34.060956 1.173896
2004-02-03 13:59:04 51°19.146 2°53.721 7.320793 3.489991 34.060125 1.106477
2004-02-03 14:00:04 51°19.114 2°53.676 7.320451 3.48957 34.059706 1.072768
2004-02-03 14:01:04 51°19.086 2°53.621 7.315366 3.489675 34.061679 1.140187
2004-02-03 14:02:04 51°19.064 2°53.569 7.314046 3.489675 34.06334 1.106477
2004-02-03 14:03:04 51°19.038 2°53.519 7.316637 3.489464 34.061885 1.173896
2004-02-03 14:04:04 51°19.021 2°53.461 7.314584 3.489359 34.061572 1.275024
2004-02-03 14:05:04 51°19.018 2°53.395 7.3183 3.489464 34.061885 1.207606
2004-02-03 14:06:04 51°19.026 2°53.325 7.322748 3.489464 34.061885 1.005349
2004-02-03 14:07:04 51°19.038 2°53.254 7.331645 3.490307 34.061893 1.039059
2004-02-03 14:08:04 51°19.051 2°53.185 7.341665 3.49115 34.062732 1.039059
2004-02-03 14:09:04 51°19.068 2°53.113 7.338683 3.491571 34.064811 1.072768
2004-02-03 14:10:04 51°19.086 2°53.046 7.335164 3.491466 34.062009 1.072768
2004-02-03 14:11:04 51°19.107 2°52.98 7.329788 3.491466 34.069479 1.039059
2004-02-03 14:12:04 51°19.131 2°52.918 7.326415 3.49115 34.071864 1.039059
2004-02-03 14:13:04 51°19.155 2°52.855 7.320157 3.491255 34.076329 1.072768
2004-02-03 14:14:04 51°19.178 2°52.792 7.321477 3.491045 34.074044 1.072768
2004-02-03 14:15:04 51°19.202 2°52.724 7.321575 3.490939 34.073732 1.173896
2004-02-03 14:16:04 51°19.227 2°52.662 7.323677 3.491782 34.07789 1.106477
2004-02-03 14:17:04 51°19.254 2°52.602 7.322211 3.491571 34.076435 1.106477
2004-02-03 14:18:04 51°19.284 2°52.539 7.324851 3.491255 34.075499 1.275024
2004-02-03 14:19:04 51°19.316 2°52.479 7.325388 3.491361 34.07415 1.173896
2004-02-03 14:20:04 51°19.348 2°52.423 7.32705 3.492098 34.073013 1.207606
2004-02-03 14:21:04 51°19.381 2°52.371 7.329885 3.491782 34.074568 1.140187
2004-02-03 14:22:04 51°19.418 2°52.313 7.334138 3.491466 34.073631 1.106477
2004-02-03 14:23:04 51°19.459 2°52.27 7.346845 3.492941 34.07634 1.241315
2004-02-03 14:24:04 51°19.503 2°52.238 7.344597 3.493046 34.074992 1.275024
2004-02-03 14:25:04 51°19.556 2°52.206 7.346601 3.493678 34.081015 1.241315
2004-02-03 14:26:04 51°19.599 2°52.2 7.34963 3.493994 34.080291 1.072768
2004-02-03 14:27:04 51°19.632 2°52.199 7.339563 3.493678 34.082676 1.207606
2004-02-03 14:28:04 51°19.671 2°52.167 7.343571 3.493994 34.085272 1.241315
2004-02-03 14:29:04 51°19.645 2°52.048 7.346454 3.494416 34.089841 1.173896
2004-02-03 14:30:04 51°19.533 2°52.14 7.360136 3.49589 34.095866 1.140187
2004-02-03 14:31:04 51°19.333 2°52.191 7.351683 3.493572 34.0525 1.140187
2004-02-03 14:32:04 51°19.118 2°52.212 7.335067 3.492835 34.066898 1.409862
2004-02-03 14:33:04 51°18.902 2°52.23 7.336924 3.493046 34.074992 1.477281
2004-02-03 14:34:04 51°18.685 2°52.243 7.333747 3.493784 34.086309 1.51099
2004-02-03 14:35:04 51°18.471 2°52.255 7.337413 3.495048 34.100018 1.241315
2004-02-03 14:36:04 51°18.255 2°52.264 7.332476 3.495575 34.102407 1.173896
2004-02-03 14:37:04 51°18.04 2°52.274 7.327099 3.493046 34.087448 1.241315
2004-02-03 14:38:04 51°17.823 2°52.285 7.327246 3.491466 34.076123 1.275024
2004-02-03 14:39:04 51°17.608 2°52.296 7.329006 3.489886 34.055662 1.308734
2004-02-03 14:40:04 51°17.393 2°52.311 7.353442 3.489148 34.026932 1.679537
2004-02-03 14:41:04 51°17.193 2°52.438 7.355347 3.490728 34.037428 1.713247
2004-02-03 14:42:04 51°17.049 2°52.704 7.333258 3.491571 34.048219 1.679537
2004-02-03 14:43:04 51°16.915 2°52.984 7.270223 3.487989 34.054188 1.612118
2004-02-03 14:44:04 51°16.772 2°53.258 7.261024 3.483038 34.036162 1.477281
2004-02-03 14:45:04 51°16.63 2°53.538 7.262002 3.481458 34.026479 1.578409
2004-02-03 14:46:04 51°16.485 2°53.807 7.267776 3.481142 34.020554 1.275024
2004-02-03 14:47:04 51°16.345 2°54.058 7.287883 3.481985 34.013096 1.207606
2004-02-03 14:48:04 51°16.268 2°54.227 7.325584 3.482195 34.004595 1.072768
2004-02-03 14:49:04 51°16.245 2°54.286 7.383486 3.476821 33.87853 1.106477
2004-02-03 14:50:04 51°16.244 2°54.305 7.393595 3.474714 33.830191 1.072768
2004-02-03 14:51:04 51°16.215 2°54.332 7.404044 3.474187 33.82038 1.039059
2004-02-03 14:52:04 51°16.167 2°54.335 7.405704 3.473766 33.802669 1.140187
2004-02-03 14:53:04 51°16.121 2°54.299 7.400284 3.472818 33.796526 1.072768
2004-02-03 14:54:04 51°16.076 2°54.247 7.396329 3.472818 33.801457 1.207606
2004-02-03 14:55:04 51°16.035 2°54.189 7.394425 3.47208 33.795126 1.140187
2004-02-03 14:56:04 51°15.998 2°54.132 7.39628 3.471659 33.793856 1.275024
2004-02-03 14:57:04 51°15.965 2°54.07 7.396915 3.471132 33.787337 1.207606
2004-02-03 14:58:04 51°15.933 2°54.003 7.395694 3.470921 33.784237 1.140187
2004-02-03 14:59:04 51°15.902 2°53.931 7.393302 3.470395 33.781006 1.173896
2004-02-03 15:00:04 51°15.87 2°53.862 7.394425 3.470289 33.779045 1.140187
2004-02-03 15:01:04 51°15.83 2°53.792 7.395157 3.470289 33.777402 1.140187
2004-02-03 15:02:04 51°15.788 2°53.735 7.396818 3.469657 33.773852 1.173896
2004-02-03 15:03:04 51°15.749 2°53.676 7.397501 3.469236 33.762726 1.308734
2004-02-03 15:04:04 51°15.713 2°53.603 7.397062 3.469025 33.762089 1.275024
2004-02-03 15:05:04 51°15.685 2°53.522 7.402823 3.468604 33.755071 1.140187
2004-02-03 15:06:04 51°15.658 2°53.442 7.40834 3.468288 33.74673 1.173896
2004-02-03 15:07:04 51°15.629 2°53.364 7.407413 3.467866 33.739715 1.140187
2004-02-03 15:08:04 51°15.604 2°53.28 7.406925 3.46755 33.737119 1.241315
2004-02-03 15:09:04 51°15.585 2°53.186 7.408389 3.46755 33.737119 1.140187
2004-02-03 15:10:04 51°15.572 2°53.087 7.410781 3.467234 33.733702 1.207606
2004-02-03 15:11:04 51°15.561 2°52.988 7.414882 3.467445 33.73024 1.241315
2004-02-03 15:12:04 51°15.552 2°52.887 7.406046 3.467655 33.737437 1.140187
2004-02-03 15:13:04 51°15.546 2°52.791 7.39838 3.467866 33.746277 1.342443
2004-02-03 15:14:04 51°15.545 2°52.7 7.395548 3.468604 33.759175 1.173896
2004-02-03 15:15:04 51°15.546 2°52.606 7.395694 3.468815 33.764737 1.173896
2004-02-03 15:16:04 51°15.551 2°52.515 7.394522 3.46892 33.761771 1.140187
2004-02-03 15:17:04 51°15.579 2°52.442 7.383437 3.469657 33.778781 1.173896
2004-02-03 15:18:04 51°15.61 2°52.413 7.390713 3.469131 33.766513 1.106477
2004-02-03 15:19:04 51°15.637 2°52.395 7.39506 3.469447 33.767467 1.072768
2004-02-03 15:20:04 51°15.691 2°52.38 7.396915 3.469552 33.770249 1.140187
2004-02-03 15:21:04 51°15.744 2°52.433 7.397843 3.469552 33.764501 1.039059
2004-02-03 15:22:04 51°15.778 2°52.506 7.401847 3.46892 33.759308 1.106477
2004-02-03 15:23:04 51°15.8 2°52.582 7.400724 3.469763 33.764316 1.140187
2004-02-03 15:24:04 51°15.814 2°52.659 7.39965 3.470289 33.773295 1.072768
2004-02-03 15:25:04 51°15.82 2°52.738 7.401993 3.470289 33.770011 1.072768
2004-02-03 15:26:04 51°15.82 2°52.815 7.403702 3.469973 33.766594 1.106477
2004-02-03 15:27:04 51°15.812 2°52.889 7.404239 3.470184 33.769693 1.039059
2004-02-03 15:28:04 51°15.798 2°52.958 7.395304 3.471237 33.784369 1.140187
2004-02-03 15:29:04 51°15.78 2°53.022 7.397843 3.471448 33.789112 1.039059
2004-02-03 15:30:04 51°15.761 2°53.085 7.39711 3.471132 33.787337 1.072768
2004-02-03 15:31:04 51°15.741 2°53.146 7.394864 3.471027 33.784555 1.106477
2004-02-03 15:32:04 51°15.72 2°53.207 7.39545 3.471238 33.790942 1.106477
2004-02-03 15:33:04 51°15.699 2°53.268 7.398868 3.471027 33.786198 1.106477
2004-02-03 15:34:04 51°15.677 2°53.329 7.407071 3.470184 33.768872 1.207606
2004-02-03 15:35:04 51°15.656 2°53.388 7.405313 3.469446 33.758437 1.173896
2004-02-03 15:36:04 51°15.635 2°53.449 7.405557 3.468814 33.753245 1.173896
2004-02-03 15:37:04 51°15.613 2°53.51 7.409707 3.46755 33.734658 1.106477
2004-02-03 15:38:04 51°15.591 2°53.569 7.413027 3.466918 33.722908 1.173896
2004-02-03 15:39:04 51°15.568 2°53.628 7.415273 3.466602 33.718674 1.241315
2004-02-03 15:40:04 51°15.545 2°53.685 7.41537 3.46597 33.711844 1.342443
2004-02-03 15:41:04 51°15.523 2°53.743 7.418104 3.465127 33.698642 1.342443
2004-02-03 15:42:04 51°15.502 2°53.801 7.419519 3.465022 33.697504 1.207606
2004-02-03 15:43:04 51°15.48 2°53.857 7.420593 3.464811 33.691953 1.275024
2004-02-03 15:44:04 51°15.455 2°53.913 7.422204 3.464495 33.688539 1.409862
2004-02-03 15:45:04 51°15.431 2°53.97 7.421277 3.463652 33.682708 1.409862
2004-02-03 15:46:04 51°15.408 2°54.028 7.422448 3.464916 33.691454 1.409862
2004-02-03 15:47:04 51°15.383 2°54.086 7.42157 3.464811 33.695228 1.443571
2004-02-03 15:48:04 51°15.359 2°54.144 7.410586 3.46439 33.69395 1.51099
2004-02-03 15:49:04 51°15.339 2°54.205 7.423083 3.465654 33.709248 1.376153
2004-02-03 15:50:04 51°15.312 2°54.254 7.451533 3.440686 33.416066 1.342443
2004-02-03 15:51:04 51°15.29 2°54.282 7.46046 3.425727 33.239448 1.443571
2004-02-03 15:52:04 51°15.277 2°54.301 7.463241 3.420355 33.174331 1.376153
2004-02-03 15:53:04 51°15.269 2°54.315 7.465582 3.42046 33.175465 1.376153
2004-02-03 15:54:04 51°15.247 2°54.341 7.465192 3.420987 33.180332 1.342443
2004-02-03 15:55:04 51°15.151 2°54.38 7.499571 3.406871 33.008362 1.443571
2004-02-03 15:56:04 51°14.973 2°54.473 7.542604 3.351569 32.366523 1.645828
2004-02-03 15:57:04 51°14.788 2°54.609 7.530813 3.308596 31.898183 1.848084
2004-02-03 15:58:04 51°14.609 2°54.763 7.559556 3.301644 31.824674 2.016631
2004-02-03 15:59:04 51°14.445 2°54.957 7.566618 3.313335 31.919506 2.050341